createdAt,value
2023-05-09T00:03:55.812Z,22.23
2023-05-09T00:13:58.546Z,23.50
2023-05-09T00:24:01.078Z,22.03
2023-05-09T00:34:02.739Z,20.17
2023-05-09T00:44:05.899Z,17.00
2023-05-09T00:54:09.267Z,15.77
2023-05-09T01:04:13.067Z,18.93
2023-05-09T01:14:56.681Z,17.20
2023-05-09T01:25:06.733Z,12.00
2023-05-09T01:35:10.193Z,13.40
2023-05-09T01:45:13.880Z,14.87
2023-05-09T01:55:17.515Z,12.47
2023-05-09T02:05:19.954Z,14.27
2023-05-09T02:15:22.485Z,11.40
2023-05-09T02:25:24.205Z,11.37
2023-05-09T02:35:27.348Z,11.30
2023-05-09T02:45:29.042Z,10.43
2023-05-09T02:55:31.822Z,12.17
2023-05-09T03:05:33.466Z,10.77
2023-05-09T03:15:35.122Z,14.27
2023-05-09T03:25:36.822Z,12.87
2023-05-09T03:35:38.549Z,11.90
2023-05-09T03:45:40.211Z,14.07
2023-05-09T03:55:41.882Z,18.53
2023-05-09T04:05:43.564Z,10.80
2023-05-09T04:15:45.224Z,12.40
2023-05-09T04:25:46.868Z,11.20
2023-05-09T04:35:48.688Z,11.80
2023-05-09T04:45:50.358Z,14.87
2023-05-09T04:55:52.023Z,11.37
2023-05-09T05:05:53.692Z,12.67
2023-05-09T05:15:56.424Z,16.13
2023-05-09T05:25:58.106Z,12.73
2023-05-09T05:35:59.941Z,14.23
2023-05-09T05:46:01.621Z,16.20
2023-05-09T05:56:03.414Z,13.33
2023-05-09T06:06:05.412Z,21.93
2023-05-09T06:16:17.961Z,12.50
2023-05-09T06:26:22.115Z,14.03
2023-05-09T06:36:24.062Z,12.33
2023-05-09T06:46:26.422Z,10.13
2023-05-09T06:56:28.271Z,9.73
2023-05-09T07:06:30.275Z,7.13
2023-05-09T07:16:31.990Z,8.50
2023-05-09T07:26:35.689Z,7.83
2023-05-09T07:46:42.075Z,10.67
2023-05-09T07:56:43.774Z,9.57
2023-05-09T08:06:45.437Z,10.67
2023-05-09T08:16:47.057Z,8.00
2023-05-09T08:26:48.738Z,8.33
2023-05-09T08:36:50.379Z,18.37
2023-05-09T08:46:58.822Z,12.10
2023-05-09T08:57:01.376Z,10.93
2023-05-09T09:07:05.779Z,10.63
2023-05-09T09:17:09.926Z,7.57
2023-05-09T09:27:11.571Z,4.43
2023-05-09T09:37:23.133Z,8.07
2023-05-09T09:47:32.252Z,4.67
2023-05-09T09:57:38.260Z,4.30
2023-05-09T10:07:39.897Z,4.90
2023-05-09T10:17:41.954Z,4.33
2023-05-09T10:27:46.843Z,3.27
2023-05-09T10:37:49.006Z,5.10
2023-05-09T10:47:53.166Z,3.73
2023-05-09T10:57:55.025Z,5.67
2023-05-09T11:08:19.380Z,5.40
2023-05-09T11:18:21.355Z,3.77
2023-05-09T11:28:31.157Z,5.17
2023-05-09T11:38:44.070Z,4.00
2023-05-09T11:48:45.772Z,4.97
2023-05-09T11:58:52.876Z,5.13
2023-05-09T12:08:56.776Z,4.17
2023-05-09T12:18:58.385Z,3.97
2023-05-09T12:29:00.186Z,3.17
2023-05-09T12:39:01.962Z,3.67
2023-05-09T12:49:03.625Z,5.90
2023-05-09T12:59:10.927Z,7.07
2023-05-09T13:09:12.881Z,3.60
2023-05-09T13:19:14.654Z,3.90
2023-05-09T13:29:16.498Z,3.17
2023-05-09T13:39:18.157Z,3.33
2023-05-09T13:49:19.904Z,5.20
2023-05-09T13:59:21.688Z,3.17
2023-05-09T14:09:23.622Z,6.35
2023-05-09T14:19:27.126Z,2.25
2023-05-09T14:29:28.940Z,4.57
2023-05-09T14:39:30.667Z,6.30
2023-05-09T14:49:32.753Z,4.80
2023-05-09T14:59:36.829Z,4.75
2023-05-09T15:09:38.867Z,2.05
2023-05-09T15:19:41.724Z,1.80
2023-05-09T15:29:44.314Z,2.95
2023-05-09T15:39:46.286Z,3.35
2023-05-09T15:49:47.903Z,5.03
2023-05-09T15:59:49.571Z,3.20
2023-05-09T16:09:51.201Z,2.40
2023-05-09T16:19:52.932Z,5.75
2023-05-09T16:29:54.853Z,6.40
2023-05-09T16:39:57.783Z,8.63
2023-05-09T16:49:59.705Z,3.58
2023-05-09T17:00:01.489Z,8.03
2023-05-09T17:10:03.950Z,6.23
2023-05-09T17:20:06.303Z,8.23
2023-05-09T17:30:08.709Z,4.50
2023-05-09T17:40:10.715Z,2.33
2023-05-09T17:50:17.088Z,4.67
2023-05-09T18:00:19.742Z,2.63
2023-05-09T18:10:24.383Z,4.37
2023-05-09T18:20:26.065Z,4.33
2023-05-09T18:30:27.793Z,5.13
2023-05-09T18:40:29.845Z,6.33
2023-05-09T18:50:31.599Z,3.10
2023-05-09T19:00:34.778Z,2.70
2023-05-09T19:10:37.965Z,4.20
2023-05-09T19:20:39.623Z,2.30
2023-05-09T19:30:41.277Z,4.33
2023-05-09T19:40:42.962Z,1.30
2023-05-09T19:50:45.871Z,4.97
2023-05-09T20:00:48.483Z,2.53
2023-05-09T20:10:50.317Z,2.10
2023-05-09T20:20:52.021Z,3.10
2023-05-09T20:30:53.704Z,3.00
2023-05-09T20:40:55.393Z,6.20
2023-05-09T20:50:57.013Z,3.17
2023-05-09T21:00:58.715Z,3.23
2023-05-09T21:11:00.346Z,2.50
2023-05-09T21:21:05.282Z,2.73
2023-05-09T21:31:09.740Z,2.63
2023-05-09T21:41:12.886Z,2.90
2023-05-09T21:51:15.140Z,2.87
2023-05-09T22:01:17.847Z,2.53
2023-05-09T22:11:20.073Z,2.50
2023-05-09T22:21:21.756Z,2.50
2023-05-09T22:31:23.467Z,2.37
2023-05-09T22:41:25.135Z,2.00
2023-05-09T22:51:27.732Z,3.83
2023-05-09T23:01:29.410Z,2.63
2023-05-09T23:11:31.088Z,2.83
2023-05-09T23:21:32.712Z,2.20
2023-05-09T23:31:35.309Z,4.07
2023-05-09T23:41:36.937Z,1.90
2023-05-09T23:51:38.798Z,4.27
